Broadlands, Illinois
Current Conditions -  °F | °C
As of 5:53 PM on Saturday 25 Oct 2014 (Local Time) from KCMI Reporting Station
Clear Clear  
Wind Chill: 64°   Ceiling: Unl
Heat Index: 64°   Visibility: 10mi
Dew Point: 47°   Wind: 8mph
Humidity: 54%   Direction: 290°WNW
Pressure: 29.98"   Gusts: NA
Location:  39.91°N, 87.99°W
Report Text: KCMI 252253Z 29007KT 10SM CLR 18/08 A2998 RMK AO2 SLP151 T01780083 $
Loading
Personal Weather Stations






























Interactive Weather Map
Tropical Storm Tracking
New forecast layout! Learn more

10-Day Weather Forecast

Advertisements
Track Severe Weather on mobile